sensor_id;sensor_type;location;lat;lon;timestamp;temperature;humidity
14101;DHT22;7127;49.372;8.166;2022-10-01T00:00:48;12.20;56.70
14101;DHT22;7127;49.372;8.166;2022-10-01T00:03:16;12.20;56.70
14101;DHT22;7127;49.372;8.166;2022-10-01T00:05:44;12.10;56.60
14101;DHT22;7127;49.372;8.166;2022-10-01T00:08:13;12.10;56.60
14101;DHT22;7127;49.372;8.166;2022-10-01T00:10:41;12.10;56.70
14101;DHT22;7127;49.372;8.166;2022-10-01T00:13:10;12.10;56.80
14101;DHT22;7127;49.372;8.166;2022-10-01T00:15:38;12.10;57.10
14101;DHT22;7127;49.372;8.166;2022-10-01T00:18:07;12.10;57.00
14101;DHT22;7127;49.372;8.166;2022-10-01T00:20:38;12.00;57.00
14101;DHT22;7127;49.372;8.166;2022-10-01T00:23:08;12.00;57.10
14101;DHT22;7127;49.372;8.166;2022-10-01T00:25:35;12.00;57.20
14101;DHT22;7127;49.372;8.166;2022-10-01T00:28:02;12.00;56.90
14101;DHT22;7127;49.372;8.166;2022-10-01T00:30:31;12.00;57.10
14101;DHT22;7127;49.372;8.166;2022-10-01T00:32:59;12.00;57.20
14101;DHT22;7127;49.372;8.166;2022-10-01T00:35:26;11.90;57.10
14101;DHT22;7127;49.372;8.166;2022-10-01T00:37:53;11.90;57.20
14101;DHT22;7127;49.372;8.166;2022-10-01T00:40:21;11.90;57.20
14101;DHT22;7127;49.372;8.166;2022-10-01T00:42:49;11.90;57.20
14101;DHT22;7127;49.372;8.166;2022-10-01T00:45:16;12.00;57.30
14101;DHT22;7127;49.372;8.166;2022-10-01T00:47:48;11.90;57.20
14101;DHT22;7127;49.372;8.166;2022-10-01T00:50:21;11.90;57.30
14101;DHT22;7127;49.372;8.166;2022-10-01T00:52:51;11.90;57.20
14101;DHT22;7127;49.372;8.166;2022-10-01T00:55:22;11.90;57.20
14101;DHT22;7127;49.372;8.166;2022-10-01T00:57:51;11.90;57.30
14101;DHT22;7127;49.372;8.166;2022-10-01T01:00:19;12.00;57.50
14101;DHT22;7127;49.372;8.166;2022-10-01T01:02:48;11.90;57.50
14101;DHT22;7127;49.372;8.166;2022-10-01T01:05:16;12.00;57.50
14101;DHT22;7127;49.372;8.166;2022-10-01T01:07:46;12.00;57.40
14101;DHT22;7127;49.372;8.166;2022-10-01T01:10:16;12.00;57.50
14101;DHT22;7127;49.372;8.166;2022-10-01T01:12:55;12.00;57.50
14101;DHT22;7127;49.372;8.166;2022-10-01T01:15:32;12.10;57.80
14101;DHT22;7127;49.372;8.166;2022-10-01T01:18:06;12.00;57.80
14101;DHT22;7127;49.372;8.166;2022-10-01T01:21:05;12.00;57.90
14101;DHT22;7127;49.372;8.166;2022-10-01T01:24:13;12.10;58.10
14101;DHT22;7127;49.372;8.166;2022-10-01T01:26:58;12.10;58.00
14101;DHT22;7127;49.372;8.166;2022-10-01T01:29:31;12.20;58.00
14101;DHT22;7127;49.372;8.166;2022-10-01T01:32:06;12.20;57.90
14101;DHT22;7127;49.372;8.166;2022-10-01T01:34:36;12.20;57.90
14101;DHT22;7127;49.372;8.166;2022-10-01T01:37:07;12.20;57.90
14101;DHT22;7127;49.372;8.166;2022-10-01T01:39:39;12.20;57.90
14101;DHT22;7127;49.372;8.166;2022-10-01T01:42:19;12.20;58.00
14101;DHT22;7127;49.372;8.166;2022-10-01T01:44:51;12.20;58.10
14101;DHT22;7127;49.372;8.166;2022-10-01T01:47:21;12.30;58.10
14101;DHT22;7127;49.372;8.166;2022-10-01T01:49:50;12.30;58.20
14101;DHT22;7127;49.372;8.166;2022-10-01T01:52:18;12.30;58.20
14101;DHT22;7127;49.372;8.166;2022-10-01T01:54:47;12.30;58.20
14101;DHT22;7127;49.372;8.166;2022-10-01T01:57:16;12.40;58.30
14101;DHT22;7127;49.372;8.166;2022-10-01T01:59:44;12.40;58.90
14101;DHT22;7127;49.372;8.166;2022-10-01T02:02:14;12.40;58.30
14101;DHT22;7127;49.372;8.166;2022-10-01T02:04:45;12.40;58.30
14101;DHT22;7127;49.372;8.166;2022-10-01T02:07:34;12.50;58.40
14101;DHT22;7127;49.372;8.166;2022-10-01T02:10:13;12.50;58.50
14101;DHT22;7127;49.372;8.166;2022-10-01T02:12:55;12.50;58.50
14101;DHT22;7127;49.372;8.166;2022-10-01T02:15:31;12.60;58.50
14101;DHT22;7127;49.372;8.166;2022-10-01T02:18:08;12.60;58.50
14101;DHT22;7127;49.372;8.166;2022-10-01T02:20:40;12.60;58.40
14101;DHT22;7127;49.372;8.166;2022-10-01T02:23:12;12.60;58.30
14101;DHT22;7127;49.372;8.166;2022-10-01T02:25:44;12.60;58.40
14101;DHT22;7127;49.372;8.166;2022-10-01T02:28:14;12.60;58.30
14101;DHT22;7127;49.372;8.166;2022-10-01T02:30:42;12.60;58.30
14101;DHT22;7127;49.372;8.166;2022-10-01T02:33:13;12.60;58.20
14101;DHT22;7127;49.372;8.166;2022-10-01T02:35:42;12.70;58.30
14101;DHT22;7127;49.372;8.166;2022-10-01T02:38:11;12.70;58.40
14101;DHT22;7127;49.372;8.166;2022-10-01T02:40:41;12.70;58.40
14101;DHT22;7127;49.372;8.166;2022-10-01T02:43:13;12.70;58.40
14101;DHT22;7127;49.372;8.166;2022-10-01T02:45:44;12.70;58.60
14101;DHT22;7127;49.372;8.166;2022-10-01T02:48:13;12.70;58.50
14101;DHT22;7127;49.372;8.166;2022-10-01T02:50:45;12.70;58.50
14101;DHT22;7127;49.372;8.166;2022-10-01T02:53:19;12.70;58.50
14101;DHT22;7127;49.372;8.166;2022-10-01T02:55:49;12.80;58.70
14101;DHT22;7127;49.372;8.166;2022-10-01T02:58:17;12.80;58.70
14101;DHT22;7127;49.372;8.166;2022-10-01T03:00:44;12.80;58.70
14101;DHT22;7127;49.372;8.166;2022-10-01T03:03:13;12.80;58.60
14101;DHT22;7127;49.372;8.166;2022-10-01T03:05:40;12.80;58.70
14101;DHT22;7127;49.372;8.166;2022-10-01T03:08:07;12.80;58.70
14101;DHT22;7127;49.372;8.166;2022-10-01T03:10:34;12.90;58.80
14101;DHT22;7127;49.372;8.166;2022-10-01T03:13:01;12.80;58.70
14101;DHT22;7127;49.372;8.166;2022-10-01T03:15:30;12.90;58.80
14101;DHT22;7127;49.372;8.166;2022-10-01T03:17:57;12.90;58.90
14101;DHT22;7127;49.372;8.166;2022-10-01T03:20:26;12.90;58.90
14101;DHT22;7127;49.372;8.166;2022-10-01T03:22:53;12.90;59.00
14101;DHT22;7127;49.372;8.166;2022-10-01T03:25:20;13.00;59.00
14101;DHT22;7127;49.372;8.166;2022-10-01T03:27:48;13.00;59.00
14101;DHT22;7127;49.372;8.166;2022-10-01T03:30:15;13.00;59.00
14101;DHT22;7127;49.372;8.166;2022-10-01T03:32:42;13.00;59.00
14101;DHT22;7127;49.372;8.166;2022-10-01T03:35:09;13.10;59.20
14101;DHT22;7127;49.372;8.166;2022-10-01T03:37:38;13.10;59.10
14101;DHT22;7127;49.372;8.166;2022-10-01T03:40:06;13.10;59.20
14101;DHT22;7127;49.372;8.166;2022-10-01T03:42:33;13.10;59.20
14101;DHT22;7127;49.372;8.166;2022-10-01T03:45:00;13.20;59.20
14101;DHT22;7127;49.372;8.166;2022-10-01T03:47:28;13.20;59.30
14101;DHT22;7127;49.372;8.166;2022-10-01T03:49:55;13.20;59.30
14101;DHT22;7127;49.372;8.166;2022-10-01T03:52:22;13.20;59.20
14101;DHT22;7127;49.372;8.166;2022-10-01T03:54:51;13.20;59.30
14101;DHT22;7127;49.372;8.166;2022-10-01T03:57:18;13.30;59.30
14101;DHT22;7127;49.372;8.166;2022-10-01T03:59:45;13.30;59.30
14101;DHT22;7127;49.372;8.166;2022-10-01T04:02:12;13.30;59.30
14101;DHT22;7127;49.372;8.166;2022-10-01T04:04:39;13.30;59.30
14101;DHT22;7127;49.372;8.166;2022-10-01T04:07:06;13.30;59.30
14101;DHT22;7127;49.372;8.166;2022-10-01T04:09:33;13.40;59.40
14101;DHT22;7127;49.372;8.166;2022-10-01T04:12:03;13.40;59.40
14101;DHT22;7127;49.372;8.166;2022-10-01T04:14:30;13.40;59.40
14101;DHT22;7127;49.372;8.166;2022-10-01T04:16:57;13.40;59.30
14101;DHT22;7127;49.372;8.166;2022-10-01T04:19:24;13.40;59.40
14101;DHT22;7127;49.372;8.166;2022-10-01T04:21:52;13.40;59.40
14101;DHT22;7127;49.372;8.166;2022-10-01T04:24:19;13.40;59.30
14101;DHT22;7127;49.372;8.166;2022-10-01T04:26:46;13.40;59.40
14101;DHT22;7127;49.372;8.166;2022-10-01T04:29:14;13.40;59.30
14101;DHT22;7127;49.372;8.166;2022-10-01T04:31:41;13.40;59.40
14101;DHT22;7127;49.372;8.166;2022-10-01T04:34:09;13.40;59.50
14101;DHT22;7127;49.372;8.166;2022-10-01T04:36:36;13.40;59.90
14101;DHT22;7127;49.372;8.166;2022-10-01T04:39:03;13.40;59.50
14101;DHT22;7127;49.372;8.166;2022-10-01T04:41:30;13.40;59.40
14101;DHT22;7127;49.372;8.166;2022-10-01T04:43:58;13.40;59.50
14101;DHT22;7127;49.372;8.166;2022-10-01T04:46:27;13.40;59.50
14101;DHT22;7127;49.372;8.166;2022-10-01T04:48:54;13.40;59.50
14101;DHT22;7127;49.372;8.166;2022-10-01T04:51:21;13.40;59.60
14101;DHT22;7127;49.372;8.166;2022-10-01T04:53:49;13.40;59.60
14101;DHT22;7127;49.372;8.166;2022-10-01T04:56:16;13.50;59.60
14101;DHT22;7127;49.372;8.166;2022-10-01T04:58:43;13.50;59.60
14101;DHT22;7127;49.372;8.166;2022-10-01T05:01:10;13.50;59.60
14101;DHT22;7127;49.372;8.166;2022-10-01T05:03:39;13.50;59.70
14101;DHT22;7127;49.372;8.166;2022-10-01T05:06:06;13.40;59.60
14101;DHT22;7127;49.372;8.166;2022-10-01T05:08:33;13.50;59.70
14101;DHT22;7127;49.372;8.166;2022-10-01T05:11:01;13.50;59.70
14101;DHT22;7127;49.372;8.166;2022-10-01T05:13:28;13.50;59.90
14101;DHT22;7127;49.372;8.166;2022-10-01T05:15:56;13.50;59.80
14101;DHT22;7127;49.372;8.166;2022-10-01T05:18:23;13.50;59.90
14101;DHT22;7127;49.372;8.166;2022-10-01T05:20:52;13.50;59.90
14101;DHT22;7127;49.372;8.166;2022-10-01T05:23:19;13.50;59.90
14101;DHT22;7127;49.372;8.166;2022-10-01T05:25:46;13.50;59.80
14101;DHT22;7127;49.372;8.166;2022-10-01T05:28:13;13.50;59.80
14101;DHT22;7127;49.372;8.166;2022-10-01T05:30:41;13.50;59.90
14101;DHT22;7127;49.372;8.166;2022-10-01T05:33:08;13.50;59.90
14101;DHT22;7127;49.372;8.166;2022-10-01T05:35:35;13.50;59.90
14101;DHT22;7127;49.372;8.166;2022-10-01T05:38:03;13.60;60.00
14101;DHT22;7127;49.372;8.166;2022-10-01T05:40:30;13.60;60.00
14101;DHT22;7127;49.372;8.166;2022-10-01T05:42:59;13.60;59.90
14101;DHT22;7127;49.372;8.166;2022-10-01T05:45:28;13.60;59.90
14101;DHT22;7127;49.372;8.166;2022-10-01T05:47:57;13.60;59.90
14101;DHT22;7127;49.372;8.166;2022-10-01T05:50:25;13.70;60.00
14101;DHT22;7127;49.372;8.166;2022-10-01T05:52:52;13.70;60.10
14101;DHT22;7127;49.372;8.166;2022-10-01T05:55:22;13.70;60.10
14101;DHT22;7127;49.372;8.166;2022-10-01T05:57:54;13.70;60.10
14101;DHT22;7127;49.372;8.166;2022-10-01T06:00:21;13.70;60.10
14101;DHT22;7127;49.372;8.166;2022-10-01T06:02:51;13.70;60.10
14101;DHT22;7127;49.372;8.166;2022-10-01T06:05:18;13.70;60.10
14101;DHT22;7127;49.372;8.166;2022-10-01T06:07:46;13.80;60.20
14101;DHT22;7127;49.372;8.166;2022-10-01T06:10:14;13.80;60.20
14101;DHT22;7127;49.372;8.166;2022-10-01T06:12:42;13.70;60.10
14101;DHT22;7127;49.372;8.166;2022-10-01T06:15:10;13.80;60.20
14101;DHT22;7127;49.372;8.166;2022-10-01T06:17:37;13.80;60.20
14101;DHT22;7127;49.372;8.166;2022-10-01T06:20:10;13.80;60.20
14101;DHT22;7127;49.372;8.166;2022-10-01T06:22:39;13.80;60.20
14101;DHT22;7127;49.372;8.166;2022-10-01T06:25:08;13.80;60.30
14101;DHT22;7127;49.372;8.166;2022-10-01T06:27:35;13.80;60.20
14101;DHT22;7127;49.372;8.166;2022-10-01T06:30:05;13.80;60.30
14101;DHT22;7127;49.372;8.166;2022-10-01T06:32:32;13.80;60.40
14101;DHT22;7127;49.372;8.166;2022-10-01T06:34:59;13.90;60.40
14101;DHT22;7127;49.372;8.166;2022-10-01T06:37:26;13.90;60.40
14101;DHT22;7127;49.372;8.166;2022-10-01T06:39:54;13.90;60.30
14101;DHT22;7127;49.372;8.166;2022-10-01T06:42:21;13.90;60.30
14101;DHT22;7127;49.372;8.166;2022-10-01T06:44:48;13.90;60.40
14101;DHT22;7127;49.372;8.166;2022-10-01T06:47:16;13.90;60.40
14101;DHT22;7127;49.372;8.166;2022-10-01T06:49:43;13.90;60.40
14101;DHT22;7127;49.372;8.166;2022-10-01T06:52:11;13.90;60.40
14101;DHT22;7127;49.372;8.166;2022-10-01T06:54:55;14.00;60.60
14101;DHT22;7127;49.372;8.166;2022-10-01T06:57:24;14.00;60.60
14101;DHT22;7127;49.372;8.166;2022-10-01T06:59:51;14.00;60.60
14101;DHT22;7127;49.372;8.166;2022-10-01T07:02:22;14.00;60.60
14101;DHT22;7127;49.372;8.166;2022-10-01T07:04:53;14.00;60.80
14101;DHT22;7127;49.372;8.166;2022-10-01T07:07:23;14.00;60.80
14101;DHT22;7127;49.372;8.166;2022-10-01T07:09:50;14.00;60.80
14101;DHT22;7127;49.372;8.166;2022-10-01T07:12:18;14.00;60.90
14101;DHT22;7127;49.372;8.166;2022-10-01T07:14:45;14.00;61.00
14101;DHT22;7127;49.372;8.166;2022-10-01T07:17:12;14.10;61.10
14101;DHT22;7127;49.372;8.166;2022-10-01T07:19:41;14.10;61.10
14101;DHT22;7127;49.372;8.166;2022-10-01T07:22:08;14.10;61.20
14101;DHT22;7127;49.372;8.166;2022-10-01T07:24:35;14.10;61.30
14101;DHT22;7127;49.372;8.166;2022-10-01T07:27:03;14.20;61.60
14101;DHT22;7127;49.372;8.166;2022-10-01T07:29:30;14.20;61.60
14101;DHT22;7127;49.372;8.166;2022-10-01T07:31:58;14.30;61.70
14101;DHT22;7127;49.372;8.166;2022-10-01T07:34:26;14.30;61.70
14101;DHT22;7127;49.372;8.166;2022-10-01T07:36:57;14.30;61.60
14101;DHT22;7127;49.372;8.166;2022-10-01T07:39:24;14.30;61.50
14101;DHT22;7127;49.372;8.166;2022-10-01T07:41:51;14.40;61.60
14101;DHT22;7127;49.372;8.166;2022-10-01T07:44:18;14.40;61.50
14101;DHT22;7127;49.372;8.166;2022-10-01T07:46:45;14.40;61.30
14101;DHT22;7127;49.372;8.166;2022-10-01T07:49:13;14.40;61.20
14101;DHT22;7127;49.372;8.166;2022-10-01T07:51:41;14.40;61.30
14101;DHT22;7127;49.372;8.166;2022-10-01T07:54:11;14.50;61.40
14101;DHT22;7127;49.372;8.166;2022-10-01T07:56:38;14.50;61.40
14101;DHT22;7127;49.372;8.166;2022-10-01T07:59:06;14.50;61.40
14101;DHT22;7127;49.372;8.166;2022-10-01T08:01:35;14.50;61.60
14101;DHT22;7127;49.372;8.166;2022-10-01T08:04:04;14.50;61.30
14101;DHT22;7127;49.372;8.166;2022-10-01T08:06:51;14.50;61.40
14101;DHT22;7127;49.372;8.166;2022-10-01T08:09:20;14.50;61.50
14101;DHT22;7127;49.372;8.166;2022-10-01T08:11:48;14.50;61.50
14101;DHT22;7127;49.372;8.166;2022-10-01T08:14:15;14.50;61.50
14101;DHT22;7127;49.372;8.166;2022-10-01T08:16:43;14.50;61.50
14101;DHT22;7127;49.372;8.166;2022-10-01T08:19:10;14.50;61.60
14101;DHT22;7127;49.372;8.166;2022-10-01T08:21:38;14.60;61.60
14101;DHT22;7127;49.372;8.166;2022-10-01T08:24:05;14.60;61.70
14101;DHT22;7127;49.372;8.166;2022-10-01T08:26:34;14.60;61.70
14101;DHT22;7127;49.372;8.166;2022-10-01T08:29:01;14.60;61.60
14101;DHT22;7127;49.372;8.166;2022-10-01T08:31:28;14.60;61.50
14101;DHT22;7127;49.372;8.166;2022-10-01T08:33:56;14.60;61.50
14101;DHT22;7127;49.372;8.166;2022-10-01T08:36:23;14.60;61.40
14101;DHT22;7127;49.372;8.166;2022-10-01T08:38:50;14.70;61.50
14101;DHT22;7127;49.372;8.166;2022-10-01T08:41:33;14.60;61.50
14101;DHT22;7127;49.372;8.166;2022-10-01T08:44:05;14.70;61.80
14101;DHT22;7127;49.372;8.166;2022-10-01T08:46:35;14.70;61.70
14101;DHT22;7127;49.372;8.166;2022-10-01T08:49:06;14.70;61.80
14101;DHT22;7127;49.372;8.166;2022-10-01T08:51:41;14.70;61.90
14101;DHT22;7127;49.372;8.166;2022-10-01T08:54:23;14.70;62.00
14101;DHT22;7127;49.372;8.166;2022-10-01T08:56:54;14.70;62.20
14101;DHT22;7127;49.372;8.166;2022-10-01T08:59:32;14.80;62.20
14101;DHT22;7127;49.372;8.166;2022-10-01T09:02:05;14.80;62.30
14101;DHT22;7127;49.372;8.166;2022-10-01T09:04:36;14.80;62.30
14101;DHT22;7127;49.372;8.166;2022-10-01T09:07:11;14.80;62.20
14101;DHT22;7127;49.372;8.166;2022-10-01T09:09:44;14.80;62.20
14101;DHT22;7127;49.372;8.166;2022-10-01T09:12:25;14.80;62.00
14101;DHT22;7127;49.372;8.166;2022-10-01T09:15:13;14.90;62.20
14101;DHT22;7127;49.372;8.166;2022-10-01T09:17:53;14.90;62.20
14101;DHT22;7127;49.372;8.166;2022-10-01T09:20:25;14.90;62.10
14101;DHT22;7127;49.372;8.166;2022-10-01T09:23:03;14.90;61.90
14101;DHT22;7127;49.372;8.166;2022-10-01T09:25:34;15.00;62.10
14101;DHT22;7127;49.372;8.166;2022-10-01T09:28:11;15.00;62.10
14101;DHT22;7127;49.372;8.166;2022-10-01T09:30:43;15.00;62.40
14101;DHT22;7127;49.372;8.166;2022-10-01T09:33:15;15.00;62.40
14101;DHT22;7127;49.372;8.166;2022-10-01T09:35:45;15.10;62.60
14101;DHT22;7127;49.372;8.166;2022-10-01T09:38:17;15.10;62.70
14101;DHT22;7127;49.372;8.166;2022-10-01T09:40:51;15.10;62.90
14101;DHT22;7127;49.372;8.166;2022-10-01T09:43:20;15.10;62.90
14101;DHT22;7127;49.372;8.166;2022-10-01T09:45:50;15.20;63.10
14101;DHT22;7127;49.372;8.166;2022-10-01T09:48:26;15.30;63.20
14101;DHT22;7127;49.372;8.166;2022-10-01T09:50:58;15.30;63.40
14101;DHT22;7127;49.372;8.166;2022-10-01T09:53:33;15.40;63.60
14101;DHT22;7127;49.372;8.166;2022-10-01T09:56:07;15.50;63.90
14101;DHT22;7127;49.372;8.166;2022-10-01T09:58:37;15.60;63.80
14101;DHT22;7127;49.372;8.166;2022-10-01T10:01:15;15.70;63.90
14101;DHT22;7127;49.372;8.166;2022-10-01T10:03:52;15.80;64.00
14101;DHT22;7127;49.372;8.166;2022-10-01T10:06:22;15.90;64.00
14101;DHT22;7127;49.372;8.166;2022-10-01T10:08:53;16.00;64.00
14101;DHT22;7127;49.372;8.166;2022-10-01T10:11:22;16.10;64.00
14101;DHT22;7127;49.372;8.166;2022-10-01T10:13:51;16.20;63.90
14101;DHT22;7127;49.372;8.166;2022-10-01T10:16:24;16.20;63.80
14101;DHT22;7127;49.372;8.166;2022-10-01T10:18:54;16.30;63.90
14101;DHT22;7127;49.372;8.166;2022-10-01T10:21:24;16.40;63.70
14101;DHT22;7127;49.372;8.166;2022-10-01T10:23:53;16.50;63.40
14101;DHT22;7127;49.372;8.166;2022-10-01T10:26:26;16.50;63.10
14101;DHT22;7127;49.372;8.166;2022-10-01T10:28:54;16.60;62.90
14101;DHT22;7127;49.372;8.166;2022-10-01T10:31:24;16.60;62.70
14101;DHT22;7127;49.372;8.166;2022-10-01T10:33:53;16.70;62.70
14101;DHT22;7127;49.372;8.166;2022-10-01T10:36:26;16.70;62.70
14101;DHT22;7127;49.372;8.166;2022-10-01T10:38:54;16.80;62.70
14101;DHT22;7127;49.372;8.166;2022-10-01T10:41:22;16.80;62.60
14101;DHT22;7127;49.372;8.166;2022-10-01T10:43:53;16.80;62.50
14101;DHT22;7127;49.372;8.166;2022-10-01T10:46:29;16.90;62.60
14101;DHT22;7127;49.372;8.166;2022-10-01T10:49:04;17.00;62.70
14101;DHT22;7127;49.372;8.166;2022-10-01T10:51:45;17.00;62.70
14101;DHT22;7127;49.372;8.166;2022-10-01T10:54:24;17.10;62.80
14101;DHT22;7127;49.372;8.166;2022-10-01T10:56:56;17.20;62.70
14101;DHT22;7127;49.372;8.166;2022-10-01T10:59:25;17.20;62.70
14101;DHT22;7127;49.372;8.166;2022-10-01T11:01:54;17.30;62.50
14101;DHT22;7127;49.372;8.166;2022-10-01T11:04:27;17.40;62.40
14101;DHT22;7127;49.372;8.166;2022-10-01T11:06:57;17.50;62.30
14101;DHT22;7127;49.372;8.166;2022-10-01T11:09:29;17.50;62.30
14101;DHT22;7127;49.372;8.166;2022-10-01T11:12:06;17.60;62.40
14101;DHT22;7127;49.372;8.166;2022-10-01T11:14:51;17.70;62.20
14101;DHT22;7127;49.372;8.166;2022-10-01T11:17:43;17.70;62.00
14101;DHT22;7127;49.372;8.166;2022-10-01T11:20:27;17.80;62.00
14101;DHT22;7127;49.372;8.166;2022-10-01T11:26:08;17.90;61.50
14101;DHT22;7127;49.372;8.166;2022-10-01T11:28:46;18.00;61.60
14101;DHT22;7127;49.372;8.166;2022-10-01T11:31:25;17.90;61.20
14101;DHT22;7127;49.372;8.166;2022-10-01T11:34:06;18.00;61.20
14101;DHT22;7127;49.372;8.166;2022-10-01T11:36:46;18.00;61.20
14101;DHT22;7127;49.372;8.166;2022-10-01T11:39:17;18.10;61.20
14101;DHT22;7127;49.372;8.166;2022-10-01T11:41:49;18.10;61.30
14101;DHT22;7127;49.372;8.166;2022-10-01T11:44:21;18.10;61.00
14101;DHT22;7127;49.372;8.166;2022-10-01T11:46:56;18.20;61.00
14101;DHT22;7127;49.372;8.166;2022-10-01T11:49:41;18.20;61.00
14101;DHT22;7127;49.372;8.166;2022-10-01T11:52:17;18.30;61.20
14101;DHT22;7127;49.372;8.166;2022-10-01T11:54:53;18.30;61.40
14101;DHT22;7127;49.372;8.166;2022-10-01T11:57:21;18.40;61.60
14101;DHT22;7127;49.372;8.166;2022-10-01T12:00:08;18.40;61.60
14101;DHT22;7127;49.372;8.166;2022-10-01T12:02:41;18.50;61.60
14101;DHT22;7127;49.372;8.166;2022-10-01T12:05:15;18.60;61.70
14101;DHT22;7127;49.372;8.166;2022-10-01T12:07:47;18.70;61.80
14101;DHT22;7127;49.372;8.166;2022-10-01T12:10:24;18.80;61.70
14101;DHT22;7127;49.372;8.166;2022-10-01T12:12:56;18.80;61.00
14101;DHT22;7127;49.372;8.166;2022-10-01T12:15:28;18.90;61.00
14101;DHT22;7127;49.372;8.166;2022-10-01T12:18:01;19.00;61.00
14101;DHT22;7127;49.372;8.166;2022-10-01T12:20:36;19.10;61.00
14101;DHT22;7127;49.372;8.166;2022-10-01T12:23:06;19.10;60.50
14101;DHT22;7127;49.372;8.166;2022-10-01T12:25:42;19.10;60.30
14101;DHT22;7127;49.372;8.166;2022-10-01T12:28:18;19.20;60.20
14101;DHT22;7127;49.372;8.166;2022-10-01T12:30:52;19.20;60.00
14101;DHT22;7127;49.372;8.166;2022-10-01T12:33:55;19.20;60.10
14101;DHT22;7127;49.372;8.166;2022-10-01T12:36:36;19.20;60.00
14101;DHT22;7127;49.372;8.166;2022-10-01T12:39:29;19.30;60.10
14101;DHT22;7127;49.372;8.166;2022-10-01T12:42:07;19.20;59.80
14101;DHT22;7127;49.372;8.166;2022-10-01T12:44:47;19.30;59.90
14101;DHT22;7127;49.372;8.166;2022-10-01T12:47:28;19.30;59.70
14101;DHT22;7127;49.372;8.166;2022-10-01T12:52:53;19.20;59.80
14101;DHT22;7127;49.372;8.166;2022-10-01T12:55:41;19.20;59.90
14101;DHT22;7127;49.372;8.166;2022-10-01T12:58:16;19.20;60.00
14101;DHT22;7127;49.372;8.166;2022-10-01T13:00:55;19.20;60.10
14101;DHT22;7127;49.372;8.166;2022-10-01T13:03:34;19.20;60.20
14101;DHT22;7127;49.372;8.166;2022-10-01T13:06:22;19.30;60.50
14101;DHT22;7127;49.372;8.166;2022-10-01T13:09:02;19.30;60.30
14101;DHT22;7127;49.372;8.166;2022-10-01T13:11:49;19.30;60.40
14101;DHT22;7127;49.372;8.166;2022-10-01T13:14:18;19.30;60.20
14101;DHT22;7127;49.372;8.166;2022-10-01T13:16:53;19.30;60.40
14101;DHT22;7127;49.372;8.166;2022-10-01T13:19:26;19.30;60.30
14101;DHT22;7127;49.372;8.166;2022-10-01T13:22:04;19.30;60.20
14101;DHT22;7127;49.372;8.166;2022-10-01T13:24:39;19.30;60.00
14101;DHT22;7127;49.372;8.166;2022-10-01T13:27:14;19.30;60.00
14101;DHT22;7127;49.372;8.166;2022-10-01T13:29:53;19.30;60.00
14101;DHT22;7127;49.372;8.166;2022-10-01T13:32:27;19.30;59.90
14101;DHT22;7127;49.372;8.166;2022-10-01T13:34:55;19.20;59.90
14101;DHT22;7127;49.372;8.166;2022-10-01T13:37:35;19.30;60.20
14101;DHT22;7127;49.372;8.166;2022-10-01T13:40:19;19.30;60.40
14101;DHT22;7127;49.372;8.166;2022-10-01T13:42:47;19.20;60.10
14101;DHT22;7127;49.372;8.166;2022-10-01T13:45:29;19.30;60.20
14101;DHT22;7127;49.372;8.166;2022-10-01T13:48:15;19.30;60.00
14101;DHT22;7127;49.372;8.166;2022-10-01T13:50:55;19.30;59.90
14101;DHT22;7127;49.372;8.166;2022-10-01T13:53:24;19.20;59.70
14101;DHT22;7127;49.372;8.166;2022-10-01T13:55:54;19.30;59.90
14101;DHT22;7127;49.372;8.166;2022-10-01T13:58:30;19.30;59.90
14101;DHT22;7127;49.372;8.166;2022-10-01T14:00:59;19.30;60.10
14101;DHT22;7127;49.372;8.166;2022-10-01T14:03:33;19.30;60.20
14101;DHT22;7127;49.372;8.166;2022-10-01T14:06:04;19.30;60.40
14101;DHT22;7127;49.372;8.166;2022-10-01T14:08:37;19.30;60.50
14101;DHT22;7127;49.372;8.166;2022-10-01T14:11:10;19.30;60.50
14101;DHT22;7127;49.372;8.166;2022-10-01T14:14:01;19.30;60.30
14101;DHT22;7127;49.372;8.166;2022-10-01T14:16:47;19.30;60.30
14101;DHT22;7127;49.372;8.166;2022-10-01T14:19:18;19.20;60.00
14101;DHT22;7127;49.372;8.166;2022-10-01T14:21:59;19.30;60.10
14101;DHT22;7127;49.372;8.166;2022-10-01T14:24:35;19.20;60.00
14101;DHT22;7127;49.372;8.166;2022-10-01T14:27:11;19.20;60.00
14101;DHT22;7127;49.372;8.166;2022-10-01T14:29:50;19.20;60.10
14101;DHT22;7127;49.372;8.166;2022-10-01T14:32:30;19.10;60.20
14101;DHT22;7127;49.372;8.166;2022-10-01T14:35:09;19.20;60.50
14101;DHT22;7127;49.372;8.166;2022-10-01T14:37:44;19.20;60.60
14101;DHT22;7127;49.372;8.166;2022-10-01T14:40:15;19.20;60.60
14101;DHT22;7127;49.372;8.166;2022-10-01T14:42:55;19.20;60.70
14101;DHT22;7127;49.372;8.166;2022-10-01T14:45:22;19.30;60.90
14101;DHT22;7127;49.372;8.166;2022-10-01T14:47:59;19.20;60.60
14101;DHT22;7127;49.372;8.166;2022-10-01T14:50:27;19.30;60.70
14101;DHT22;7127;49.372;8.166;2022-10-01T14:52:56;19.30;60.50
14101;DHT22;7127;49.372;8.166;2022-10-01T14:55:24;19.30;60.50
14101;DHT22;7127;49.372;8.166;2022-10-01T14:57:54;19.30;60.50
14101;DHT22;7127;49.372;8.166;2022-10-01T15:00:24;19.30;60.60
14101;DHT22;7127;49.372;8.166;2022-10-01T15:03:01;19.30;60.60
14101;DHT22;7127;49.372;8.166;2022-10-01T15:05:31;19.30;60.60
14101;DHT22;7127;49.372;8.166;2022-10-01T15:08:05;19.30;60.60
14101;DHT22;7127;49.372;8.166;2022-10-01T15:10:38;19.30;60.60
14101;DHT22;7127;49.372;8.166;2022-10-01T15:13:07;19.30;60.50
14101;DHT22;7127;49.372;8.166;2022-10-01T15:15:39;19.30;60.40
14101;DHT22;7127;49.372;8.166;2022-10-01T15:18:10;19.30;60.40
14101;DHT22;7127;49.372;8.166;2022-10-01T15:20:49;19.30;60.30
14101;DHT22;7127;49.372;8.166;2022-10-01T15:23:17;19.30;60.20
14101;DHT22;7127;49.372;8.166;2022-10-01T15:25:45;19.20;60.00
14101;DHT22;7127;49.372;8.166;2022-10-01T15:28:15;19.20;60.00
14101;DHT22;7127;49.372;8.166;2022-10-01T15:30:49;19.10;59.80
14101;DHT22;7127;49.372;8.166;2022-10-01T15:33:22;19.10;59.90
14101;DHT22;7127;49.372;8.166;2022-10-01T15:35:53;19.00;60.00
14101;DHT22;7127;49.372;8.166;2022-10-01T15:38:20;18.90;59.90
14101;DHT22;7127;49.372;8.166;2022-10-01T15:40:50;18.90;60.10
14101;DHT22;7127;49.372;8.166;2022-10-01T15:43:33;18.90;61.10
14101;DHT22;7127;49.372;8.166;2022-10-01T15:46:25;18.80;60.60
14101;DHT22;7127;49.372;8.166;2022-10-01T15:49:17;18.80;61.00
14101;DHT22;7127;49.372;8.166;2022-10-01T15:51:53;18.70;60.80
14101;DHT22;7127;49.372;8.166;2022-10-01T15:54:40;18.70;61.10
14101;DHT22;7127;49.372;8.166;2022-10-01T15:57:13;18.60;60.60
14101;DHT22;7127;49.372;8.166;2022-10-01T15:59:43;18.60;60.70
14101;DHT22;7127;49.372;8.166;2022-10-01T16:02:16;18.60;60.70
14101;DHT22;7127;49.372;8.166;2022-10-01T16:04:44;18.50;60.90
14101;DHT22;7127;49.372;8.166;2022-10-01T16:07:18;18.50;60.80
14101;DHT22;7127;49.372;8.166;2022-10-01T16:09:55;18.50;60.90
14101;DHT22;7127;49.372;8.166;2022-10-01T16:12:24;18.50;61.00
14101;DHT22;7127;49.372;8.166;2022-10-01T16:15:00;18.40;60.80
14101;DHT22;7127;49.372;8.166;2022-10-01T16:17:30;18.50;61.10
14101;DHT22;7127;49.372;8.166;2022-10-01T16:19:59;18.40;60.90